createdAt,value
2019-05-10T00:01:15.525Z,19.53
2019-05-10T00:06:26.913Z,21.50
2019-05-10T00:11:24.081Z,18.15
2019-05-10T00:16:18.423Z,17.32
2019-05-10T00:21:11.988Z,15.40
2019-05-10T00:26:07.433Z,16.75
2019-05-10T00:31:00.999Z,21.75
2019-05-10T00:35:54.892Z,15.93
2019-05-10T00:40:48.419Z,22.50
2019-05-10T00:45:45.222Z,23.52
2019-05-10T00:50:38.790Z,20.97
2019-05-10T00:55:32.378Z,24.80
2019-05-10T01:00:25.946Z,24.23
2019-05-10T01:05:22.069Z,24.52
2019-05-10T01:10:15.732Z,25.32
2019-05-10T01:15:10.565Z,30.65
2019-05-10T01:20:06.854Z,19.90
2019-05-10T01:25:00.361Z,19.23
2019-05-10T01:29:53.937Z,22.55
2019-05-10T01:34:47.522Z,27.60
2019-05-10T01:39:41.045Z,22.62
2019-05-10T01:44:34.613Z,23.07
2019-05-10T01:49:29.139Z,27.58
2019-05-10T01:54:23.625Z,20.23
2019-05-10T01:59:17.460Z,25.30
2019-05-10T02:04:11.026Z,21.73
2019-05-10T02:09:07.197Z,28.10
2019-05-10T02:14:01.601Z,23.73
2019-05-10T02:18:55.157Z,25.00
2019-05-10T02:23:48.753Z,28.02
2019-05-10T02:28:42.311Z,29.92
2019-05-10T02:33:35.899Z,21.12
2019-05-10T02:38:29.448Z,26.12
2019-05-10T02:43:23.279Z,21.90
2019-05-10T02:48:16.874Z,24.77
2019-05-10T02:53:11.189Z,27.13
2019-05-10T02:58:04.903Z,24.63
2019-05-10T03:02:59.306Z,24.63
2019-05-10T03:07:56.056Z,27.00
2019-05-10T03:12:52.527Z,20.48
2019-05-10T03:17:47.326Z,26.10
2019-05-10T03:22:42.646Z,20.15
2019-05-10T03:27:36.650Z,26.40
2019-05-10T03:32:32.187Z,20.23
2019-05-10T03:37:25.968Z,29.52
2019-05-10T03:42:20.434Z,29.60
2019-05-10T03:47:14.007Z,17.40
2019-05-10T03:52:07.626Z,14.45
2019-05-10T03:57:13.203Z,20.45
2019-05-10T04:01:56.738Z,17.36
2019-05-10T04:06:50.366Z,22.17
2019-05-10T04:11:45.082Z,19.92
2019-05-10T04:16:38.666Z,23.12
2019-05-10T04:21:32.225Z,17.75
2019-05-10T04:26:26.072Z,19.67
2019-05-10T04:31:19.633Z,16.95
2019-05-10T04:36:13.233Z,19.98
2019-05-10T04:41:06.773Z,20.80
2019-05-10T04:46:00.402Z,19.85
2019-05-10T04:50:54.319Z,16.73
2019-05-10T04:55:47.934Z,15.60
2019-05-10T05:00:41.505Z,16.02
2019-05-10T05:05:35.070Z,15.05
2019-05-10T05:10:28.653Z,17.70
2019-05-10T05:15:22.212Z,17.65
2019-05-10T05:20:17.052Z,12.13
2019-05-10T05:25:10.786Z,15.45
2019-05-10T05:30:07.536Z,15.18
2019-05-10T05:35:06.841Z,15.23
2019-05-10T05:40:01.424Z,11.85
2019-05-10T05:44:55.140Z,10.82
2019-05-10T05:49:49.596Z,12.27
2019-05-10T05:54:43.088Z,11.60
2019-05-10T05:59:36.647Z,12.68
2019-05-10T06:04:30.240Z,20.00
2019-05-10T06:09:23.715Z,11.20
2019-05-10T06:14:17.241Z,15.20
2019-05-10T06:19:10.714Z,20.00
2019-05-10T06:24:07.473Z,16.25
2019-05-10T06:29:04.199Z,14.38
2019-05-10T06:33:56.106Z,15.30
2019-05-10T06:38:49.668Z,16.10
2019-05-10T06:43:51.029Z,17.23
2019-05-10T06:48:41.828Z,14.18
2019-05-10T06:53:35.305Z,11.93
2019-05-10T06:58:30.433Z,16.60
2019-05-10T07:03:24.333Z,10.90
2019-05-10T07:08:20.498Z,9.13
2019-05-10T07:13:13.649Z,12.03
2019-05-10T07:18:07.164Z,11.63
2019-05-10T07:23:05.982Z,13.60
2019-05-10T07:27:56.144Z,11.90
2019-05-10T07:32:54.467Z,10.80
2019-05-10T07:37:47.798Z,11.45
2019-05-10T07:42:45.616Z,11.80
2019-05-10T07:47:36.700Z,14.05
2019-05-10T07:52:30.256Z,7.97
2019-05-10T07:57:24.744Z,8.83
2019-05-10T08:02:19.009Z,7.50
2019-05-10T08:07:12.499Z,11.70
2019-05-10T08:12:06.346Z,10.08
2019-05-10T08:17:05.897Z,15.30
2019-05-10T08:22:00.782Z,7.53
2019-05-10T08:26:57.180Z,8.58
2019-05-10T08:31:52.425Z,7.17
2019-05-10T08:36:45.796Z,12.68
2019-05-10T08:41:36.181Z,12.35
2019-05-10T08:46:40.588Z,12.65
2019-05-10T08:51:25.992Z,7.56
2019-05-10T08:56:21.652Z,6.80
2019-05-10T09:01:26.164Z,13.68
2019-05-10T09:06:15.890Z,9.83
2019-05-10T09:11:06.962Z,8.40
2019-05-10T09:16:02.407Z,17.70
2019-05-10T09:21:00.369Z,8.68
2019-05-10T09:25:52.673Z,5.70
2019-05-10T09:30:59.385Z,4.03
2019-05-10T09:35:47.039Z,5.85
2019-05-10T09:40:42.599Z,10.70
2019-05-10T09:45:33.075Z,1.90
2019-05-10T09:50:30.553Z,4.60
2019-05-10T09:55:30.239Z,3.27
2019-05-10T10:00:37.863Z,4.50
2019-05-10T10:05:31.241Z,4.00
2019-05-10T10:10:30.125Z,5.15
2019-05-10T10:15:29.862Z,3.70
2019-05-10T10:20:15.287Z,2.65
2019-05-10T10:25:09.089Z,6.40
2019-05-10T10:30:06.452Z,4.08
2019-05-10T10:34:58.201Z,7.10
2019-05-10T10:39:54.390Z,4.47
2019-05-10T10:44:48.321Z,4.55
2019-05-10T10:49:41.948Z,6.90
2019-05-10T10:54:37.515Z,3.67
2019-05-10T10:59:30.706Z,5.67
2019-05-10T11:04:24.547Z,4.67
2019-05-10T11:09:20.589Z,3.22
2019-05-10T11:14:14.809Z,2.70
2019-05-10T11:19:15.293Z,1.95
2019-05-10T11:24:10.503Z,5.50
2019-05-10T11:29:01.369Z,6.10
2019-05-10T11:33:58.740Z,8.90
2019-05-10T11:38:58.471Z,5.92
2019-05-10T11:43:51.639Z,4.47
2019-05-10T11:48:45.457Z,8.27
2019-05-10T11:53:41.408Z,5.17
2019-05-10T11:58:37.658Z,5.12
2019-05-10T12:03:49.017Z,5.45
2019-05-10T12:08:42.488Z,3.83
2019-05-10T12:13:37.257Z,4.05
2019-05-10T12:18:32.506Z,2.60
2019-05-10T12:23:31.215Z,3.55
2019-05-10T12:28:28.488Z,9.75
2019-05-10T12:33:24.293Z,7.62
2019-05-10T12:38:13.785Z,4.10
2019-05-10T12:43:10.945Z,7.60
2019-05-10T12:48:03.950Z,7.67
2019-05-10T12:53:14.053Z,10.18
2019-05-10T12:57:52.726Z,3.72
2019-05-10T13:02:51.054Z,4.70
2019-05-10T13:07:41.561Z,7.72
2019-05-10T13:12:36.911Z,7.97
2019-05-10T13:17:30.919Z,4.03
2019-05-10T13:22:24.457Z,4.58
2019-05-10T13:27:18.036Z,4.58
2019-05-10T13:32:14.772Z,4.67
2019-05-10T13:37:06.893Z,9.47
2019-05-10T13:42:03.296Z,8.83
2019-05-10T13:46:55.593Z,2.43
2019-05-10T13:51:49.404Z,5.12
2019-05-10T13:56:45.452Z,5.30
2019-05-10T14:01:38.200Z,3.95
2019-05-10T14:06:31.679Z,3.02
2019-05-10T14:11:25.377Z,2.63
2019-05-10T14:16:22.447Z,9.25
2019-05-10T14:21:14.306Z,7.35
2019-05-10T14:26:09.302Z,6.75
2019-05-10T14:31:03.051Z,7.35
2019-05-10T14:36:00.933Z,4.50
2019-05-10T14:40:52.674Z,10.68
2019-05-10T14:45:46.606Z,6.00
2019-05-10T14:50:40.157Z,6.25
2019-05-10T14:55:36.851Z,4.37
2019-05-10T15:00:28.901Z,6.37
2019-05-10T15:05:22.732Z,4.83
2019-05-10T15:10:16.684Z,8.00
2019-05-10T15:15:10.588Z,2.80
2019-05-10T15:20:06.893Z,6.43
2019-05-10T15:25:00.583Z,3.02
2019-05-10T15:29:58.629Z,11.03
2019-05-10T15:35:05.213Z,8.58
2019-05-10T15:39:45.089Z,8.68
2019-05-10T15:44:38.665Z,7.15
2019-05-10T15:49:34.144Z,3.40
2019-05-10T15:54:27.637Z,3.00
2019-05-10T15:59:21.404Z,3.35
2019-05-10T16:04:15.289Z,6.92
2019-05-10T16:09:16.985Z,6.47
2019-05-10T16:14:06.904Z,4.03
2019-05-10T16:19:00.653Z,6.97
2019-05-10T16:23:54.467Z,7.40
2019-05-10T16:28:53.086Z,4.80
2019-05-10T16:33:43.252Z,3.60
2019-05-10T16:38:36.837Z,5.67
2019-05-10T16:43:30.317Z,4.28
2019-05-10T16:48:23.792Z,3.85
2019-05-10T16:53:17.288Z,4.43
2019-05-10T16:58:15.174Z,2.62
2019-05-10T17:03:06.312Z,6.15
2019-05-10T17:08:00.352Z,3.30
2019-05-10T17:12:53.936Z,7.50
2019-05-10T17:17:47.489Z,4.80
2019-05-10T17:22:41.221Z,5.45
2019-05-10T17:27:34.709Z,6.47
2019-05-10T17:32:30.640Z,3.50
2019-05-10T17:37:24.133Z,7.08
2019-05-10T17:42:17.679Z,3.35
2019-05-10T17:47:11.229Z,6.87
2019-05-10T17:52:04.803Z,5.25
2019-05-10T17:56:58.281Z,6.40
2019-05-10T18:01:51.848Z,3.37
